createdAt,value
2022-11-24T00:00:37.832Z,79.09
2022-11-24T00:01:39.340Z,79.45
2022-11-24T00:02:40.987Z,79.61
2022-11-24T00:03:46.806Z,79.05
2022-11-24T00:04:48.322Z,78.80
2022-11-24T00:05:49.859Z,78.64
2022-11-24T00:06:53.415Z,78.47
2022-11-24T00:07:54.984Z,78.76
2022-11-24T00:08:57.123Z,78.58
2022-11-24T00:09:58.648Z,78.36
2022-11-24T00:11:14.665Z,78.56
2022-11-24T00:12:16.179Z,78.93
2022-11-24T00:13:17.693Z,79.63
2022-11-24T00:14:19.915Z,79.66
2022-11-24T00:15:21.600Z,79.61
2022-11-24T00:16:26.443Z,79.64
2022-11-24T00:17:29.419Z,78.67
2022-11-24T00:18:31.295Z,78.62
2022-11-24T00:19:32.800Z,79.00
2022-11-24T00:20:34.388Z,78.42
2022-11-24T00:21:37.123Z,78.51
2022-11-24T00:22:38.724Z,78.39
2022-11-24T00:23:40.640Z,78.44
2022-11-24T00:24:42.132Z,78.91
2022-11-24T00:25:43.657Z,79.31
2022-11-24T00:26:45.232Z,78.67
2022-11-24T00:27:46.740Z,79.30
2022-11-24T00:28:50.171Z,79.48
2022-11-24T00:29:51.690Z,78.72
2022-11-24T00:30:53.247Z,79.21
2022-11-24T00:31:56.738Z,79.15
2022-11-24T00:32:58.262Z,79.56
2022-11-24T00:34:02.609Z,79.57
2022-11-24T00:35:04.500Z,80.04
2022-11-24T00:36:06.251Z,80.72
2022-11-24T00:37:07.818Z,80.79
2022-11-24T00:38:09.328Z,80.71
2022-11-24T00:39:15.774Z,81.27
2022-11-24T00:40:17.436Z,79.96
2022-11-24T00:41:18.945Z,80.44
2022-11-24T00:42:20.467Z,80.23
2022-11-24T00:43:22.028Z,79.87
2022-11-24T00:44:23.639Z,79.24
2022-11-24T00:45:25.170Z,79.16
2022-11-24T00:46:27.974Z,78.81
2022-11-24T00:47:32.821Z,78.80
2022-11-24T00:48:34.784Z,79.25
2022-11-24T00:49:36.384Z,78.20
2022-11-24T00:50:38.026Z,79.41
2022-11-24T00:51:39.759Z,80.26
2022-11-24T00:52:41.303Z,80.47
2022-11-24T00:53:43.600Z,81.93
2022-11-24T00:54:45.129Z,82.43
2022-11-24T00:55:50.066Z,82.65
2022-11-24T00:56:51.609Z,81.97
2022-11-24T00:57:53.145Z,83.39
2022-11-24T00:58:55.131Z,83.36
2022-11-24T00:59:56.635Z,82.72
2022-11-24T01:01:16.539Z,82.18
2022-11-24T01:02:18.183Z,82.07
2022-11-24T01:03:20.916Z,82.52
2022-11-24T01:04:22.420Z,81.99
2022-11-24T01:05:23.931Z,81.44
2022-11-24T01:06:26.333Z,81.95
2022-11-24T01:07:27.877Z,81.39
2022-11-24T01:08:29.489Z,81.52
2022-11-24T01:09:30.998Z,82.79
2022-11-24T01:10:33.394Z,83.74
2022-11-24T01:11:54.605Z,83.20
2022-11-24T01:12:56.171Z,83.71
2022-11-24T01:13:59.328Z,84.45
2022-11-24T01:15:00.877Z,84.30
2022-11-24T01:16:02.524Z,84.33
2022-11-24T01:17:04.363Z,83.58
2022-11-24T01:18:06.281Z,83.50
2022-11-24T01:19:07.932Z,83.17
2022-11-24T01:20:10.018Z,83.03
2022-11-24T01:21:11.874Z,82.65
2022-11-24T01:22:13.780Z,82.53
2022-11-24T01:23:15.282Z,82.07
2022-11-24T01:24:17.077Z,81.78
2022-11-24T01:25:18.610Z,81.36
2022-11-24T01:26:22.290Z,81.98
2022-11-24T01:27:23.836Z,80.91
2022-11-24T01:28:25.374Z,81.66
2022-11-24T01:29:26.968Z,81.44
2022-11-24T01:30:28.478Z,80.39
2022-11-24T01:31:30.175Z,80.22
2022-11-24T01:32:33.245Z,80.73
2022-11-24T01:33:35.586Z,80.08
2022-11-24T01:34:37.112Z,80.00
2022-11-24T01:35:38.660Z,79.76
2022-11-24T01:36:40.239Z,79.38
2022-11-24T01:37:41.757Z,79.28
2022-11-24T01:38:43.312Z,79.08
2022-11-24T01:39:44.883Z,78.60
2022-11-24T01:40:46.823Z,78.20
2022-11-24T01:41:48.343Z,78.38
2022-11-24T01:42:51.654Z,78.46
2022-11-24T01:43:55.171Z,77.51
2022-11-24T01:45:31.041Z,77.75
2022-11-24T01:46:43.704Z,76.82
2022-11-24T01:47:45.265Z,77.07
2022-11-24T01:49:08.640Z,76.45
2022-11-24T01:50:16.243Z,75.93
2022-11-24T01:51:23.136Z,75.99
2022-11-24T01:52:33.066Z,75.31
2022-11-24T01:53:35.507Z,75.69
2022-11-24T01:54:40.830Z,76.25
2022-11-24T01:55:42.506Z,76.53
2022-11-24T01:56:47.946Z,76.99
2022-11-24T01:58:07.523Z,77.45
2022-11-24T01:59:12.449Z,77.25
2022-11-24T02:00:14.860Z,77.60
2022-11-24T02:01:16.506Z,77.64
2022-11-24T02:02:19.439Z,77.10
2022-11-24T02:03:26.361Z,77.50
2022-11-24T02:04:33.230Z,77.24
2022-11-24T02:05:51.190Z,77.87
2022-11-24T02:06:55.040Z,78.08
2022-11-24T02:08:00.384Z,78.44
2022-11-24T02:09:13.470Z,79.00
2022-11-24T02:10:16.321Z,79.45
2022-11-24T02:11:21.085Z,80.66
2022-11-24T02:12:24.687Z,81.03
2022-11-24T02:13:26.443Z,82.00
2022-11-24T02:14:28.601Z,82.67
2022-11-24T02:15:30.857Z,82.85
2022-11-24T02:16:35.841Z,82.50
2022-11-24T02:17:37.787Z,82.62
2022-11-24T02:18:40.120Z,81.30
2022-11-24T02:19:47.495Z,80.86
2022-11-24T02:20:49.146Z,80.63
2022-11-24T02:21:50.920Z,80.83
2022-11-24T02:22:55.537Z,80.19
2022-11-24T02:24:26.587Z,79.31
2022-11-24T02:25:46.735Z,79.31
2022-11-24T02:26:49.732Z,79.66
2022-11-24T02:27:54.109Z,80.22
2022-11-24T02:28:56.352Z,79.51
2022-11-24T02:29:58.580Z,80.11
2022-11-24T02:31:01.803Z,80.12
2022-11-24T02:32:06.778Z,80.19
2022-11-24T02:33:09.965Z,80.39
2022-11-24T02:34:11.456Z,80.93
2022-11-24T02:35:13.449Z,81.71
2022-11-24T02:36:14.971Z,81.70
2022-11-24T02:37:16.541Z,81.65
2022-11-24T02:38:18.173Z,82.06
2022-11-24T02:39:19.907Z,82.47
2022-11-24T02:40:26.307Z,82.53
2022-11-24T02:41:29.150Z,82.97
2022-11-24T02:42:36.263Z,83.66
2022-11-24T02:43:49.700Z,82.34
2022-11-24T02:44:56.952Z,82.48
2022-11-24T02:45:58.547Z,81.62
2022-11-24T02:47:09.218Z,81.75
2022-11-24T02:48:10.748Z,81.35
2022-11-24T02:49:12.269Z,81.03
2022-11-24T02:50:13.760Z,80.14
2022-11-24T02:51:15.510Z,80.12
2022-11-24T02:52:17.027Z,79.79
2022-11-24T02:53:18.591Z,79.86
2022-11-24T02:54:20.100Z,79.80
2022-11-24T02:55:21.689Z,79.09
2022-11-24T02:56:23.208Z,78.52
2022-11-24T02:57:24.721Z,78.31
2022-11-24T02:58:26.294Z,78.18
2022-11-24T02:59:27.859Z,78.82
2022-11-24T03:00:29.418Z,78.78
2022-11-24T03:01:31.028Z,77.84
2022-11-24T03:02:32.650Z,77.96
2022-11-24T03:03:34.331Z,77.85
2022-11-24T03:04:36.259Z,77.58
2022-11-24T03:05:38.163Z,77.09
2022-11-24T03:06:39.771Z,77.46
2022-11-24T03:07:41.395Z,77.53
2022-11-24T03:08:42.988Z,77.39
2022-11-24T03:09:44.514Z,77.20
2022-11-24T03:10:46.293Z,76.98
2022-11-24T03:11:47.884Z,76.97
2022-11-24T03:12:49.391Z,77.03
2022-11-24T03:13:51.003Z,77.77
2022-11-24T03:14:52.524Z,79.56
2022-11-24T03:15:54.128Z,81.95
2022-11-24T03:16:55.695Z,83.04
2022-11-24T03:17:57.399Z,84.13
2022-11-24T03:18:59.276Z,83.03
2022-11-24T03:20:04.907Z,83.88
2022-11-24T03:21:07.225Z,83.10
2022-11-24T03:22:08.840Z,83.56
2022-11-24T03:23:10.779Z,83.49
2022-11-24T03:24:12.294Z,82.52
2022-11-24T03:25:13.914Z,82.87
2022-11-24T03:26:18.119Z,82.68
2022-11-24T03:27:19.792Z,82.04
2022-11-24T03:28:21.315Z,82.37
2022-11-24T03:29:23.038Z,81.24
2022-11-24T03:30:24.683Z,79.94
2022-11-24T03:31:26.238Z,81.11
2022-11-24T03:32:27.849Z,79.60
2022-11-24T03:33:29.568Z,79.84
2022-11-24T03:34:31.281Z,79.62
2022-11-24T03:35:32.998Z,80.31
2022-11-24T03:36:34.574Z,80.92
2022-11-24T03:37:36.124Z,80.18
2022-11-24T03:38:37.806Z,80.96
2022-11-24T03:39:39.370Z,80.42
2022-11-24T03:40:41.279Z,80.79
2022-11-24T03:41:42.864Z,79.53
2022-11-24T03:42:44.425Z,79.79
2022-11-24T03:43:45.974Z,79.65
2022-11-24T03:44:47.482Z,80.36
2022-11-24T03:45:50.111Z,80.59
2022-11-24T03:46:52.109Z,79.47
2022-11-24T03:47:53.637Z,79.35
2022-11-24T03:48:55.152Z,79.20
2022-11-24T03:49:56.643Z,78.94
2022-11-24T03:51:00.544Z,78.54
2022-11-24T03:52:07.656Z,79.08
2022-11-24T03:53:10.006Z,78.69
2022-11-24T03:54:11.873Z,78.00
2022-11-24T03:55:13.474Z,77.28
2022-11-24T03:56:15.106Z,78.00
2022-11-24T03:57:16.650Z,77.33
2022-11-24T03:58:19.413Z,78.15
2022-11-24T03:59:21.089Z,77.98
2022-11-24T04:00:22.838Z,78.31
2022-11-24T04:01:24.511Z,77.56
2022-11-24T04:02:26.064Z,79.20
2022-11-24T04:03:27.912Z,78.30
2022-11-24T04:04:29.445Z,80.07
2022-11-24T04:05:31.158Z,78.37
2022-11-24T04:06:32.689Z,79.31
2022-11-24T04:07:34.340Z,78.61
2022-11-24T04:08:36.490Z,78.88
2022-11-24T04:09:38.349Z,78.31
2022-11-24T04:10:40.350Z,77.92
2022-11-24T04:12:00.228Z,77.67
2022-11-24T04:13:01.862Z,79.72
2022-11-24T04:14:04.352Z,80.66
2022-11-24T04:15:07.805Z,80.81
2022-11-24T04:16:09.456Z,81.91
2022-11-24T04:17:11.218Z,81.16
2022-11-24T04:18:14.402Z,80.91
2022-11-24T04:19:16.533Z,80.57
2022-11-24T04:20:18.402Z,80.02
2022-11-24T04:21:21.875Z,80.66
2022-11-24T04:22:24.654Z,80.14
2022-11-24T04:23:28.257Z,80.62
2022-11-24T04:24:30.020Z,80.00
2022-11-24T04:25:32.306Z,79.87
2022-11-24T04:26:34.404Z,79.27
2022-11-24T04:27:37.319Z,80.20
2022-11-24T04:28:39.217Z,80.72
2022-11-24T04:29:40.967Z,80.43
2022-11-24T04:30:45.166Z,79.67
2022-11-24T04:31:47.782Z,78.71
2022-11-24T04:32:49.590Z,78.82
2022-11-24T04:33:51.105Z,78.88
2022-11-24T04:34:53.200Z,79.55
2022-11-24T04:35:54.723Z,78.51
2022-11-24T04:36:56.384Z,78.68
2022-11-24T04:38:01.784Z,78.72
2022-11-24T04:39:19.669Z,78.29
2022-11-24T04:40:24.937Z,78.73
2022-11-24T04:41:26.479Z,78.49
2022-11-24T04:42:28.113Z,78.91
2022-11-24T04:43:30.306Z,78.26
2022-11-24T04:44:32.326Z,79.08
2022-11-24T04:45:34.206Z,79.28
2022-11-24T04:46:35.850Z,79.36
2022-11-24T04:47:38.301Z,79.63
2022-11-24T04:48:39.860Z,79.55
2022-11-24T04:49:41.387Z,80.37
2022-11-24T04:50:42.968Z,80.89
2022-11-24T04:51:45.158Z,81.58
2022-11-24T04:52:47.326Z,83.01
2022-11-24T04:53:49.517Z,83.58
2022-11-24T04:54:51.376Z,84.70
2022-11-24T04:55:52.901Z,84.41
2022-11-24T04:56:54.583Z,83.86
2022-11-24T04:57:56.127Z,82.86
2022-11-24T04:58:57.640Z,84.00
2022-11-24T04:59:59.329Z,84.34
2022-11-24T05:01:00.898Z,85.04
2022-11-24T05:02:02.420Z,84.93
2022-11-24T05:03:04.974Z,86.87
2022-11-24T05:04:06.564Z,87.88
2022-11-24T05:05:08.535Z,88.58
2022-11-24T05:06:10.080Z,88.51
2022-11-24T05:07:17.979Z,89.34
2022-11-24T05:08:20.456Z,91.18
2022-11-24T05:09:22.027Z,91.19
2022-11-24T05:10:35.566Z,91.70
2022-11-24T05:11:37.119Z,92.25
2022-11-24T05:12:39.600Z,93.20
2022-11-24T05:13:41.205Z,95.65
2022-11-24T05:14:42.745Z,96.23
2022-11-24T05:15:44.372Z,96.76
2022-11-24T05:16:46.042Z,97.40
2022-11-24T05:17:47.661Z,97.71
2022-11-24T05:18:49.178Z,98.22
2022-11-24T05:19:50.703Z,98.19
2022-11-24T05:20:52.301Z,98.32
2022-11-24T05:21:54.373Z,99.03
2022-11-24T05:22:56.000Z,99.04
2022-11-24T05:23:57.970Z,99.04
2022-11-24T05:24:59.530Z,99.04
2022-11-24T05:26:01.936Z,98.66
2022-11-24T05:27:03.591Z,98.15
2022-11-24T05:28:09.890Z,97.57
2022-11-24T05:29:11.429Z,97.87
2022-11-24T05:30:13.516Z,97.47
2022-11-24T05:31:15.064Z,97.24
2022-11-24T05:32:16.660Z,96.71
2022-11-24T05:33:23.038Z,96.17
2022-11-24T05:34:24.752Z,95.71
2022-11-24T05:35:26.382Z,95.22
2022-11-24T05:36:46.365Z,94.99
2022-11-24T05:37:48.196Z,95.39
2022-11-24T05:38:49.694Z,95.16
2022-11-24T05:39:51.305Z,95.81
2022-11-24T05:40:52.829Z,94.92
2022-11-24T05:41:54.369Z,94.21
2022-11-24T05:42:55.978Z,93.74
2022-11-24T05:43:57.514Z,92.48
2022-11-24T05:44:59.767Z,93.00
2022-11-24T05:46:02.010Z,92.48
2022-11-24T05:47:03.728Z,92.33
2022-11-24T05:48:07.725Z,91.86
2022-11-24T05:49:09.313Z,91.73
2022-11-24T05:50:13.451Z,91.24
2022-11-24T05:51:15.010Z,91.24
2022-11-24T05:52:17.198Z,91.29
2022-11-24T05:53:18.818Z,90.99
2022-11-24T05:54:20.613Z,90.61
2022-11-24T05:55:22.214Z,90.82
2022-11-24T05:56:23.813Z,89.07
2022-11-24T05:57:25.366Z,88.84
2022-11-24T05:58:27.050Z,88.72
2022-11-24T05:59:28.637Z,88.89
2022-11-24T06:00:32.647Z,88.07
2022-11-24T06:01:34.760Z,87.15
2022-11-24T06:02:36.448Z,87.28
2022-11-24T06:03:38.126Z,87.19
2022-11-24T06:04:39.700Z,87.33
2022-11-24T06:05:46.814Z,86.52
2022-11-24T06:06:48.335Z,86.23
2022-11-24T06:07:50.930Z,86.14
2022-11-24T06:08:52.526Z,85.76
2022-11-24T06:09:54.093Z,85.89
2022-11-24T06:11:17.097Z,86.95
2022-11-24T06:12:19.013Z,87.74
2022-11-24T06:13:20.707Z,89.50
2022-11-24T06:14:22.495Z,90.75
2022-11-24T06:15:24.129Z,90.20
2022-11-24T06:16:26.158Z,90.23
2022-11-24T06:17:27.957Z,90.18
2022-11-24T06:18:29.710Z,90.26
2022-11-24T06:19:31.512Z,89.62
2022-11-24T06:20:33.278Z,89.90
2022-11-24T06:21:34.860Z,89.30
2022-11-24T06:22:37.119Z,89.29
2022-11-24T06:23:39.233Z,89.28
2022-11-24T06:24:40.823Z,89.35
2022-11-24T06:25:43.614Z,87.12
2022-11-24T06:26:47.831Z,86.63
2022-11-24T06:27:49.343Z,85.68
2022-11-24T06:28:50.871Z,85.29
2022-11-24T06:29:52.760Z,85.26
2022-11-24T06:30:54.497Z,85.88
2022-11-24T06:31:56.312Z,85.56
2022-11-24T06:32:57.930Z,84.82
2022-11-24T06:33:59.842Z,85.40
2022-11-24T06:35:01.555Z,85.93
2022-11-24T06:36:08.415Z,86.18
2022-11-24T06:37:10.272Z,86.98
2022-11-24T06:38:11.789Z,87.51
2022-11-24T06:39:13.329Z,87.41
2022-11-24T06:40:14.947Z,87.52
2022-11-24T06:41:18.118Z,88.06
2022-11-24T06:42:21.524Z,88.37
2022-11-24T06:43:23.357Z,88.21
2022-11-24T06:44:25.166Z,88.94
2022-11-24T06:45:26.802Z,88.54
2022-11-24T06:46:28.396Z,90.53
2022-11-24T06:47:29.980Z,91.60
2022-11-24T06:48:32.092Z,91.25
2022-11-24T06:49:33.643Z,92.00
2022-11-24T06:50:35.715Z,92.66
2022-11-24T06:51:37.450Z,92.87
2022-11-24T06:52:39.015Z,92.76
2022-11-24T06:53:41.245Z,92.06
2022-11-24T06:54:43.563Z,91.83
2022-11-24T06:55:46.872Z,90.73
2022-11-24T06:56:48.604Z,90.88
2022-11-24T06:57:50.140Z,90.77
2022-11-24T06:58:53.259Z,91.95
2022-11-24T06:59:54.838Z,93.06
2022-11-24T07:00:56.758Z,92.64
2022-11-24T07:01:58.996Z,92.35
2022-11-24T07:03:01.011Z,91.57
2022-11-24T07:04:02.700Z,91.58
2022-11-24T07:05:04.479Z,90.85
2022-11-24T07:06:06.173Z,92.11
2022-11-24T07:07:07.851Z,92.42
2022-11-24T07:08:14.600Z,92.35
2022-11-24T07:09:19.062Z,93.38
2022-11-24T07:10:21.079Z,92.80
2022-11-24T07:11:23.693Z,93.20
2022-11-24T07:12:25.215Z,92.80
2022-11-24T07:13:26.715Z,92.03
2022-11-24T07:14:28.228Z,90.92
2022-11-24T07:15:30.429Z,90.55
2022-11-24T07:16:32.285Z,91.34
2022-11-24T07:17:38.080Z,91.26
2022-11-24T07:18:39.703Z,90.24
2022-11-24T07:19:41.281Z,89.79
2022-11-24T07:20:43.333Z,88.86
2022-11-24T07:21:44.946Z,89.41
2022-11-24T07:22:46.559Z,88.55
2022-11-24T07:23:52.178Z,88.65
2022-11-24T07:24:53.668Z,87.64
2022-11-24T07:25:55.230Z,87.98
2022-11-24T07:26:56.770Z,88.06
2022-11-24T07:27:59.976Z,86.47
2022-11-24T07:29:01.496Z,87.09
2022-11-24T07:30:03.510Z,86.37
2022-11-24T07:31:10.303Z,85.47
2022-11-24T07:32:11.928Z,84.24
2022-11-24T07:33:13.531Z,84.73
2022-11-24T07:34:15.075Z,84.02
2022-11-24T07:35:16.592Z,84.89
2022-11-24T07:36:18.529Z,84.49
2022-11-24T07:37:20.085Z,84.66
2022-11-24T07:38:21.680Z,86.01
2022-11-24T07:39:23.244Z,86.45
2022-11-24T07:40:26.955Z,85.30
2022-11-24T07:41:28.655Z,86.21
2022-11-24T07:42:30.248Z,84.79
2022-11-24T07:43:33.243Z,85.84
2022-11-24T07:44:34.959Z,84.47
2022-11-24T07:45:36.757Z,83.76
2022-11-24T07:46:38.336Z,84.10
2022-11-24T07:47:40.679Z,83.41
2022-11-24T07:48:42.267Z,82.86
2022-11-24T07:49:43.818Z,81.61
2022-11-24T07:50:45.492Z,82.21
2022-11-24T07:51:47.085Z,81.33
2022-11-24T07:52:48.694Z,80.99
2022-11-24T07:53:50.524Z,80.37
2022-11-24T07:54:52.417Z,80.35
2022-11-24T07:55:55.696Z,79.66
2022-11-24T07:56:57.348Z,79.69
2022-11-24T07:58:00.659Z,79.93
2022-11-24T07:59:02.651Z,79.99
2022-11-24T08:00:05.916Z,79.72
2022-11-24T08:01:16.607Z,79.61
2022-11-24T08:02:18.426Z,79.76
2022-11-24T08:03:20.429Z,78.05
2022-11-24T08:04:22.166Z,77.64
2022-11-24T08:05:23.691Z,76.45
2022-11-24T08:06:29.051Z,76.69
2022-11-24T08:07:37.670Z,75.14
2022-11-24T08:08:39.299Z,74.82
2022-11-24T08:09:41.103Z,75.49
2022-11-24T08:10:42.654Z,74.03
2022-11-24T08:11:44.528Z,75.03
2022-11-24T08:12:46.090Z,74.27
2022-11-24T08:13:47.714Z,74.83
2022-11-24T08:14:50.495Z,74.18
2022-11-24T08:15:52.023Z,72.34
2022-11-24T08:16:53.611Z,71.92
2022-11-24T08:17:55.407Z,71.36
2022-11-24T08:18:57.009Z,72.03
2022-11-24T08:19:58.627Z,72.10
2022-11-24T08:21:00.241Z,71.07
2022-11-24T08:22:01.761Z,69.97
2022-11-24T08:23:03.512Z,70.31
2022-11-24T08:24:05.611Z,68.65
2022-11-24T08:25:07.774Z,67.18
2022-11-24T08:26:15.966Z,68.19
2022-11-24T08:27:18.883Z,68.05
2022-11-24T08:28:21.372Z,68.63
2022-11-24T08:29:22.953Z,70.40
2022-11-24T08:30:24.718Z,70.74
2022-11-24T08:31:33.428Z,71.59
2022-11-24T08:32:35.406Z,71.20
2022-11-24T08:33:37.294Z,71.69
2022-11-24T08:34:39.221Z,71.45
2022-11-24T08:35:40.781Z,70.79
2022-11-24T08:36:42.304Z,70.41
2022-11-24T08:37:44.078Z,70.29
2022-11-24T08:38:46.349Z,70.83
2022-11-24T08:39:47.974Z,70.95
2022-11-24T08:40:49.492Z,72.21
2022-11-24T08:41:51.131Z,73.71
2022-11-24T08:42:56.853Z,74.05
2022-11-24T08:43:58.558Z,75.42
2022-11-24T08:45:04.942Z,74.17
2022-11-24T08:46:20.195Z,74.48
2022-11-24T08:47:21.817Z,72.60
2022-11-24T08:48:23.412Z,72.48
2022-11-24T08:49:25.010Z,72.61
2022-11-24T08:50:26.654Z,75.03
2022-11-24T08:51:28.818Z,74.02
2022-11-24T08:52:30.591Z,75.30
2022-11-24T08:53:32.097Z,76.81
2022-11-24T08:54:33.980Z,76.02
2022-11-24T08:55:35.686Z,75.45
2022-11-24T08:56:37.385Z,76.83
2022-11-24T08:57:38.984Z,77.68
2022-11-24T08:58:41.250Z,77.57
2022-11-24T08:59:42.826Z,77.29
2022-11-24T09:00:44.373Z,76.63
2022-11-24T09:01:45.995Z,76.24
2022-11-24T09:02:53.990Z,76.46
2022-11-24T09:03:55.801Z,77.56
2022-11-24T09:04:57.432Z,77.33
2022-11-24T09:05:59.019Z,76.63
2022-11-24T09:07:00.753Z,77.10
2022-11-24T09:08:02.415Z,76.12
2022-11-24T09:09:04.131Z,77.50
2022-11-24T09:10:06.331Z,76.95
2022-11-24T09:11:10.709Z,76.82
2022-11-24T09:12:14.618Z,77.12
2022-11-24T09:13:16.501Z,76.51
2022-11-24T09:14:18.050Z,76.10
2022-11-24T09:15:20.376Z,75.64
2022-11-24T09:16:26.049Z,75.20
2022-11-24T09:17:27.683Z,75.11
2022-11-24T09:18:30.553Z,75.26
2022-11-24T09:19:32.645Z,75.05
2022-11-24T09:20:34.394Z,74.30
2022-11-24T09:21:39.253Z,73.08
2022-11-24T09:22:41.743Z,73.25
2022-11-24T09:23:44.026Z,71.81
2022-11-24T09:24:45.507Z,72.06
2022-11-24T09:25:47.053Z,71.78
2022-11-24T09:26:48.582Z,72.17
2022-11-24T09:27:51.156Z,72.50
2022-11-24T09:28:54.706Z,72.66
2022-11-24T09:29:56.318Z,72.58
2022-11-24T09:31:01.381Z,72.37
2022-11-24T09:32:06.727Z,72.07
2022-11-24T09:33:08.799Z,71.53
2022-11-24T09:34:14.823Z,71.38
2022-11-24T09:35:16.453Z,71.56
2022-11-24T09:36:18.644Z,71.31
2022-11-24T09:37:20.230Z,71.34
2022-11-24T09:38:22.872Z,71.15
2022-11-24T09:39:25.634Z,70.93
2022-11-24T09:40:27.215Z,71.59
2022-11-24T09:41:49.394Z,71.21
2022-11-24T09:42:53.924Z,70.39
2022-11-24T09:44:08.668Z,70.65
2022-11-24T09:45:57.057Z,70.88
2022-11-24T09:47:06.413Z,71.05
2022-11-24T09:48:30.958Z,70.45
2022-11-24T09:50:05.281Z,69.85
2022-11-24T09:51:11.644Z,69.35
2022-11-24T09:52:18.560Z,69.56
2022-11-24T09:53:39.345Z,69.42
2022-11-24T09:54:54.663Z,68.96
2022-11-24T09:56:00.542Z,68.64
2022-11-24T09:57:07.244Z,68.40
2022-11-24T09:58:24.344Z,68.68
2022-11-24T09:59:27.500Z,68.24
2022-11-24T10:00:30.182Z,68.64
2022-11-24T10:01:41.577Z,68.75
2022-11-24T10:02:46.116Z,68.83
2022-11-24T10:03:51.004Z,68.52
2022-11-24T10:04:54.809Z,68.54
2022-11-24T10:05:56.428Z,69.10
2022-11-24T10:07:16.692Z,67.98
2022-11-24T10:08:54.182Z,67.13
2022-11-24T10:10:07.906Z,66.72
2022-11-24T10:11:14.809Z,67.17
2022-11-24T10:12:34.393Z,66.87
2022-11-24T10:13:54.583Z,67.12
2022-11-24T10:15:14.899Z,67.10
2022-11-24T10:16:41.304Z,67.29
2022-11-24T10:17:49.712Z,67.74
2022-11-24T10:19:03.380Z,67.89
2022-11-24T10:20:33.575Z,68.10
2022-11-24T10:21:52.848Z,67.85
2022-11-24T10:23:19.737Z,67.81
2022-11-24T10:24:51.802Z,67.67
2022-11-24T10:25:58.181Z,67.35
2022-11-24T10:27:11.535Z,67.62
2022-11-24T10:28:15.083Z,68.15
2022-11-24T10:29:38.203Z,68.23
2022-11-24T10:30:40.236Z,68.20
2022-11-24T10:31:44.642Z,68.66
2022-11-24T10:32:49.279Z,68.39
2022-11-24T10:33:51.274Z,68.51
2022-11-24T10:34:55.881Z,68.17
2022-11-24T10:36:13.485Z,68.86
2022-11-24T10:37:23.750Z,69.33
2022-11-24T10:38:51.515Z,70.77
2022-11-24T10:40:17.181Z,70.94
2022-11-24T10:42:07.101Z,72.75
2022-11-24T10:43:11.292Z,72.00
2022-11-24T10:44:14.309Z,72.59
2022-11-24T10:45:19.423Z,69.67
2022-11-24T10:46:27.971Z,70.81
2022-11-24T10:47:30.737Z,70.50
2022-11-24T10:48:41.081Z,71.89
2022-11-24T10:49:57.919Z,72.64
2022-11-24T10:51:17.687Z,73.32
2022-11-24T10:52:20.012Z,74.12
2022-11-24T10:53:30.246Z,74.46
2022-11-24T10:54:33.123Z,73.92
2022-11-24T10:55:56.246Z,75.24
2022-11-24T10:56:57.944Z,75.16
2022-11-24T10:58:15.433Z,76.15
2022-11-24T10:59:37.554Z,76.21
2022-11-24T11:00:39.599Z,75.63
2022-11-24T11:01:41.187Z,76.21
2022-11-24T11:02:42.834Z,76.49
2022-11-24T11:03:49.982Z,76.61
2022-11-24T11:04:51.725Z,77.40
2022-11-24T11:06:13.135Z,78.42
2022-11-24T11:07:18.671Z,79.13
2022-11-24T11:08:22.588Z,78.98
2022-11-24T11:09:24.270Z,78.66
2022-11-24T11:10:25.789Z,78.98
2022-11-24T11:11:29.189Z,79.01
2022-11-24T11:12:46.156Z,78.63
2022-11-24T11:13:52.249Z,79.35
2022-11-24T11:14:54.051Z,79.14
2022-11-24T11:15:57.264Z,79.22
2022-11-24T11:16:59.586Z,79.78
2022-11-24T11:18:01.688Z,79.82
2022-11-24T11:19:20.202Z,81.00
2022-11-24T11:20:34.152Z,80.60
2022-11-24T11:21:37.956Z,80.99
2022-11-24T11:22:45.285Z,80.97
2022-11-24T11:23:51.748Z,81.10
2022-11-24T11:25:10.112Z,82.23
2022-11-24T11:26:22.551Z,81.44
2022-11-24T11:27:25.290Z,81.23
2022-11-24T11:28:29.155Z,80.88
2022-11-24T11:31:18.018Z,82.96
2022-11-24T11:34:16.682Z,82.26
2022-11-24T11:35:17.020Z,83.36
2022-11-24T11:36:18.588Z,83.44
2022-11-24T11:37:21.704Z,81.71
2022-11-24T11:38:26.358Z,82.61
2022-11-24T11:39:36.939Z,82.92
2022-11-24T11:40:42.768Z,82.78
2022-11-24T11:41:49.558Z,82.98
2022-11-24T11:43:02.860Z,82.66
2022-11-24T11:44:17.649Z,82.78
2022-11-24T11:45:32.113Z,83.81
2022-11-24T11:46:33.898Z,82.73
2022-11-24T11:47:44.315Z,83.23
2022-11-24T11:48:47.458Z,82.98
2022-11-24T11:49:49.660Z,83.11
2022-11-24T11:51:22.230Z,84.08
2022-11-24T11:52:51.160Z,83.33
2022-11-24T11:53:55.785Z,83.68
2022-11-24T11:55:46.599Z,83.17
2022-11-24T11:57:06.470Z,82.53
2022-11-24T11:58:18.547Z,82.38
2022-11-24T12:00:01.974Z,82.75
2022-11-24T12:01:24.365Z,82.90
2022-11-24T12:02:53.685Z,81.72
2022-11-24T12:04:16.353Z,81.36
2022-11-24T12:05:38.857Z,81.83
2022-11-24T12:06:49.428Z,83.10
2022-11-24T12:08:22.649Z,82.04
2022-11-24T12:09:53.448Z,82.02
2022-11-24T12:11:28.965Z,82.39
2022-11-24T12:12:42.389Z,83.33
2022-11-24T12:14:02.657Z,81.40
2022-11-24T12:15:22.055Z,80.75
2022-11-24T12:16:48.062Z,80.91
2022-11-24T12:17:52.900Z,82.05
2022-11-24T12:19:02.938Z,81.66
2022-11-24T12:20:42.217Z,81.93
2022-11-24T12:21:48.290Z,81.65
2022-11-24T12:23:17.705Z,80.61
2022-11-24T12:24:40.515Z,79.49
2022-11-24T12:25:47.915Z,78.76
2022-11-24T12:26:57.209Z,79.47
2022-11-24T12:28:37.958Z,78.72
2022-11-24T12:29:42.044Z,79.27
2022-11-24T12:31:12.411Z,78.61
2022-11-24T12:32:55.515Z,79.63
2022-11-24T12:34:31.068Z,79.57
2022-11-24T12:35:39.207Z,79.30
2022-11-24T12:36:49.441Z,80.09
2022-11-24T12:38:08.828Z,78.33
2022-11-24T12:39:28.803Z,79.21
2022-11-24T12:41:06.468Z,78.76
2022-11-24T12:42:53.617Z,79.16
2022-11-24T12:43:58.292Z,79.70
2022-11-24T12:45:13.241Z,79.88
2022-11-24T12:46:56.727Z,80.45
2022-11-24T12:48:35.712Z,79.27
2022-11-24T12:49:56.310Z,80.42
2022-11-24T12:50:59.144Z,79.81
2022-11-24T12:52:09.016Z,80.83
2022-11-24T12:53:24.358Z,80.81
2022-11-24T12:54:30.091Z,81.41
2022-11-24T12:55:34.053Z,81.02
2022-11-24T12:56:57.975Z,80.04
2022-11-24T12:58:11.086Z,81.47
2022-11-24T12:59:21.030Z,81.64
2022-11-24T13:00:29.526Z,81.86
2022-11-24T13:01:35.892Z,81.45
2022-11-24T13:03:00.622Z,81.06
2022-11-24T13:04:11.052Z,81.64
2022-11-24T13:05:30.270Z,82.03
2022-11-24T13:06:49.341Z,81.79
2022-11-24T13:08:01.109Z,82.29
2022-11-24T13:09:10.734Z,81.45
2022-11-24T13:10:46.488Z,81.63
2022-11-24T13:11:48.978Z,82.86
2022-11-24T13:12:57.555Z,80.73
2022-11-24T13:14:00.438Z,81.55
2022-11-24T13:15:43.314Z,81.35
2022-11-24T13:17:13.378Z,80.63
2022-11-24T13:18:46.961Z,78.13
2022-11-24T13:19:49.718Z,79.58
2022-11-24T13:20:51.630Z,78.68
2022-11-24T13:22:01.930Z,78.95
2022-11-24T13:23:08.493Z,79.62
2022-11-24T13:24:19.332Z,77.83
2022-11-24T13:25:28.748Z,77.44
2022-11-24T13:26:52.282Z,78.20
2022-11-24T13:27:57.613Z,80.18
2022-11-24T13:29:09.350Z,77.81
2022-11-24T13:30:34.966Z,75.84
2022-11-24T13:31:36.611Z,76.31
2022-11-24T13:32:38.180Z,76.20
2022-11-24T13:33:40.207Z,76.39
2022-11-24T13:34:45.919Z,75.20
2022-11-24T13:36:03.170Z,76.57
2022-11-24T13:37:26.716Z,76.83
2022-11-24T13:38:45.348Z,76.71
2022-11-24T13:39:58.353Z,76.58
2022-11-24T13:41:27.031Z,76.37
2022-11-24T13:42:42.157Z,77.00
2022-11-24T13:44:13.498Z,76.89
2022-11-24T13:45:37.127Z,77.79
2022-11-24T13:47:05.688Z,77.93
2022-11-24T13:48:20.334Z,78.18
2022-11-24T13:49:22.272Z,78.25
2022-11-24T13:50:45.387Z,77.97
2022-11-24T13:51:46.918Z,77.75
2022-11-24T13:52:58.002Z,78.31
2022-11-24T13:54:00.960Z,78.08
2022-11-24T13:55:21.497Z,77.63
2022-11-24T13:56:26.472Z,77.52
2022-11-24T13:57:57.369Z,78.13
2022-11-24T13:59:03.118Z,79.36
2022-11-24T14:00:18.308Z,78.20
2022-11-24T14:01:24.262Z,78.77
2022-11-24T14:02:26.651Z,79.73
2022-11-24T14:03:33.904Z,79.84
2022-11-24T14:04:39.466Z,80.14
2022-11-24T14:05:49.009Z,79.27
2022-11-24T14:06:53.328Z,80.21
2022-11-24T14:07:55.060Z,79.62
2022-11-24T14:08:59.660Z,80.09
2022-11-24T14:10:02.047Z,80.20
2022-11-24T14:11:13.310Z,80.45
2022-11-24T14:12:19.044Z,80.11
2022-11-24T14:13:26.163Z,80.32
2022-11-24T14:14:27.967Z,80.67